This is the latest recevied weather packets stored in our database for station/object 2E1HJE-10. If no packets are shown the sender has not sent any weather packets the latest 10 day(s).
| Time | Temp. | Humidity | Pressure | Rain* | Wind** | Luminosity | Snow |
|---|---|---|---|---|---|---|---|
| 1777733307 | 20.56° C | 54% | 1014.3 hPa | 0 mm | - | - | - |
| 1777732707 | 20.56° C | 54% | 1014.3 hPa | 0 mm | - | - | - |
| 1777732107 | 20.56° C | 54% | 1014.3 hPa | 0 mm | - | - | - |
| 1777731507 | 20.56° C | 56% | 1014.5 hPa | 0 mm | - | - | - |
| 1777730907 | 21.11° C | 56% | 1014.5 hPa | 0 mm | - | - | - |
| 1777730307 | 20° C | 48% | 1015.9 hPa | 0 mm | - | - | - |
| 1777729707 | 20° C | 48% | 1015.9 hPa | 0 mm | - | - | - |
| 1777729107 | 20° C | 48% | 1015.9 hPa | 0 mm | - | - | - |
| 1777728507 | 20.56° C | 48% | 1015.9 hPa | 0 mm | - | - | - |
| 1777727907 | 20.56° C | 48% | 1015.9 hPa | 0 mm | - | - | - |
| 1777727307 | 20.56° C | 48% | 1015.9 hPa | 0 mm | - | - | - |
| 1777726707 | 20° C | 46% | 1016.6 hPa | 0 mm | - | - | - |
| 1777726110 | 20° C | 46% | 1016.6 hPa | 0 mm | - | - | - |
| 1777725507 | 20° C | 46% | 1016.6 hPa | 0 mm | - | - | - |
| 1777724907 | 20° C | 46% | 1016.6 hPa | 0 mm | - | - | - |
| 1777724307 | 20° C | 46% | 1016.6 hPa | 0 mm | - | - | - |
| 1777723708 | 20° C | 46% | 1016.6 hPa | 0 mm | - | - | - |
| 1777723107 | 19.44° C | 51% | 1017.1 hPa | 0 mm | - | - | - |
| 1777722507 | 19.44° C | 51% | 1017.1 hPa | 0 mm | - | - | - |
| 1777721307 | 18.89° C | 51% | 1017.1 hPa | 0 mm | - | - | - |
| 1777720707 | 18.89° C | 49% | 1017.1 hPa | 0 mm | - | - | - |
| 1777720107 | 18.33° C | 49% | 1017.1 hPa | 0 mm | - | - | - |
| 1777719508 | 18.33° C | 55% | 1017.9 hPa | 0 mm | - | - | - |
| 1777718907 | 18.89° C | 53% | 1017.7 hPa | 0 mm | - | - | - |
| 1777718307 | 18.33° C | 53% | 1017.7 hPa | 0 mm | - | - | - |
* Rain latest hour (hover to see other rain measurements)
** Current wind speed in m/s (hover to see current wind gust speed)